Welcome to the New NWS' Forecast!
Most changes are behind the scenes, but click here for differences you might notice.

Terminal Aerodrome Forecast (TAF)

Issued by National Weather Service (NWS)

                            
000
FTUS42 KKEY 181130
TAFEYW
TAF
KEYW 181130Z 1812/1912 08010KT P6SM VCSH SCT025
     FM181500 09012G18KT P6SM FEW025=